Time;durP1;ratioP1;P1;durP2;ratioP2;P2;SDS_P1;SDS_P2;PMS_P1;PMS_P2;Temp;Humidity;BMP_temperature;BMP_pressure;BME280_temperature;BME280_humidity;BME280_pressure;Samples;Min_cycle;Max_cycle;Signal;HPM_P1;HPM_P2
2023/07/25 00:02:15;;;;;;;;;;;20.80;73.80;;;20.27;67.06;95720.84;4929062;29;19933;-88
2023/07/25 00:04:43;;;;;;;;;;;20.80;73.90;;;20.24;67.03;95720.38;4929149;29;20301;-87
2023/07/25 00:07:11;;;;;;;;;;;20.80;74.10;;;20.26;66.97;95720.03;4929158;29;19946;-87
2023/07/25 00:09:42;;;;;;;;;;;20.80;74.20;;;20.34;67.26;95721.06;4928785;29;20412;-87
2023/07/25 00:12:11;;;;;;;;;;;20.80;74.30;;;20.33;67.13;95719.47;4928661;29;20326;-88
2023/07/25 00:14:39;;;;;;;;;;;20.80;74.20;;;20.34;67.20;95719.09;4928824;29;19942;-88
2023/07/25 00:17:08;;;;;;;;;;;20.80;74.10;;;20.32;67.24;95701.16;4928525;29;19926;-87
2023/07/25 00:19:36;;;;;;;;;;;20.80;74.20;;;20.29;67.43;95693.50;4944394;29;19934;-87
2023/07/25 00:22:05;;;;;;;;;;;20.80;74.40;;;20.28;67.66;95694.66;4928508;29;19926;-87
2023/07/25 00:24:33;;;;;;;;;;;20.80;74.50;;;20.26;67.58;95702.53;4943713;29;20417;-87
2023/07/25 00:27:01;;;;;;;;;;;20.80;74.50;;;20.27;67.67;95704.16;4928782;29;20389;-87
2023/07/25 00:29:31;;;;;;;;;;;20.80;74.70;;;20.30;67.97;95698.72;4928655;29;19927;-87
2023/07/25 00:31:59;;;;;;;;;;;20.80;74.80;;;20.29;67.83;95694.31;4928415;29;19933;-87
2023/07/25 00:34:27;;;;;;;;;;;20.80;74.80;;;20.30;67.77;95689.56;4910090;29;19927;-87
2023/07/25 00:36:56;;;;;;;;;;;20.80;74.80;;;20.32;67.68;95685.28;4909416;29;19934;-87
2023/07/25 00:39:24;;;;;;;;;;;20.80;74.90;;;20.34;67.71;95665.47;4909484;29;20000;-87
2023/07/25 00:41:52;;;;;;;;;;;20.80;74.80;;;20.33;67.53;95666.66;4908965;29;19927;-88
2023/07/25 00:44:20;;;;;;;;;;;20.80;74.60;;;20.31;67.73;95649.50;4909080;29;20420;-88
2023/07/25 00:46:50;;;;;;;;;;;20.80;74.60;;;20.31;67.91;95666.19;4925197;29;19927;-87
2023/07/25 00:49:21;;;;;;;;;;;20.80;74.70;;;20.31;67.87;95661.41;4915575;29;19959;-87
2023/07/25 00:51:49;;;;;;;;;;;20.80;74.80;;;20.34;67.65;95668.25;4928125;29;20305;-88
2023/07/25 00:54:17;;;;;;;;;;;20.80;74.80;;;20.35;67.60;95664.31;4944187;28;20308;-87
2023/07/25 00:56:46;;;;;;;;;;;20.90;74.70;;;20.32;67.50;95662.25;4928286;29;19935;-87
2023/07/25 00:59:14;;;;;;;;;;;20.80;74.50;;;20.30;67.57;95670.91;4928068;29;19934;-87
2023/07/25 01:01:42;;;;;;;;;;;20.80;74.50;;;20.30;67.58;95664.56;4927835;29;20408;-88
2023/07/25 01:04:12;;;;;;;;;;;20.80;74.50;;;20.31;67.66;95664.19;4925043;29;19927;-88
2023/07/25 01:06:40;;;;;;;;;;;20.80;74.60;;;20.28;67.43;95644.63;4909161;29;19927;-88
2023/07/25 01:09:08;;;;;;;;;;;20.80;74.50;;;20.26;67.39;95646.94;4925158;29;19927;-88
2023/07/25 01:11:36;;;;;;;;;;;20.80;74.50;;;20.28;67.34;95656.56;4908895;29;19931;-88
2023/07/25 01:14:05;;;;;;;;;;;20.80;74.60;;;20.31;67.21;95649.50;4924483;29;19927;-88
2023/07/25 01:16:33;;;;;;;;;;;20.80;74.60;;;20.28;67.35;95639.88;4908776;29;19942;-88
2023/07/25 01:19:01;;;;;;;;;;;20.80;74.40;;;20.28;67.32;95639.88;4909125;29;19926;-88
2023/07/25 01:21:31;;;;;;;;;;;20.80;74.40;;;20.27;67.61;95648.56;4927586;29;19933;-88
2023/07/25 01:24:02;;;;;;;;;;;20.80;75.30;;;20.27;67.65;95659.69;4928146;29;19933;-88
2023/07/25 01:26:30;;;;;;;;;;;20.80;74.70;;;20.30;67.66;95659.00;4908637;29;19927;-88
2023/07/25 01:28:58;;;;;;;;;;;20.80;74.70;;;20.32;67.53;95649.16;4909114;29;19933;-88
2023/07/25 01:31:27;;;;;;;;;;;20.80;74.50;;;20.28;67.48;95636.28;4927428;29;19928;-88
2023/07/25 01:33:55;;;;;;;;;;;20.80;74.40;;;20.23;67.49;95638.13;4912437;29;19934;-88
2023/07/25 01:36:23;;;;;;;;;;;20.80;74.40;;;20.26;67.42;95641.38;4927414;29;19926;-88
2023/07/25 01:38:51;;;;;;;;;;;20.80;74.70;;;20.24;67.50;95625.88;4942682;29;19926;-88
2023/07/25 01:41:21;;;;;;;;;;;20.80;74.60;;;20.24;67.39;95628.66;4927810;29;20401;-88
2023/07/25 01:43:50;;;;;;;;;;;20.70;74.50;;;20.19;67.37;95631.69;4927785;29;19927;-88
2023/07/25 01:46:18;;;;;;;;;;;20.70;74.50;;;20.19;67.67;95637.22;4927549;29;20416;-88
2023/07/25 01:48:46;;;;;;;;;;;20.70;74.70;;;20.23;67.52;95638.13;4927311;29;20353;-88
2023/07/25 01:51:14;;;;;;;;;;;20.70;74.60;;;20.20;67.38;95655.50;4922089;29;19926;-88
2023/07/25 01:53:42;;;;;;;;;;;20.70;74.50;;;20.17;67.28;95652.63;4943517;29;19956;-88
2023/07/25 01:56:11;;;;;;;;;;;20.70;74.40;;;20.12;67.29;95659.22;4942858;29;19926;-88
2023/07/25 01:58:40;;;;;;;;;;;20.70;74.40;;;20.05;67.44;95654.22;4943254;29;19927;-88
2023/07/25 02:01:08;;;;;;;;;;;20.60;74.20;;;20.01;67.50;95658.03;4958130;28;19927;-88
2023/07/25 02:03:37;;;;;;;;;;;20.60;74.50;;;20.00;67.72;95648.09;4927082;29;19931;-88
2023/07/25 02:06:06;;;;;;;;;;;20.50;74.70;;;19.99;67.70;95649.25;4927403;29;19949;-88
2023/07/25 02:08:34;;;;;;;;;;;20.50;74.80;;;19.99;67.79;95661.19;4942910;29;19934;-88
2023/07/25 02:11:03;;;;;;;;;;;20.50;74.80;;;20.00;67.84;95651.69;4927150;29;19950;-88
2023/07/25 02:13:31;;;;;;;;;;;20.50;74.80;;;20.02;67.43;95643.00;4942627;29;20420;-88
2023/07/25 02:16:06;;;;;;;;;;;20.50;74.60;;;19.97;67.17;95640.44;4927493;29;20316;-88
2023/07/25 02:18:34;;;;;;;;;;;20.50;74.10;;;19.95;67.40;95645.53;4926848;29;19926;-88
2023/07/25 02:21:02;;;;;;;;;;;20.50;74.60;;;20.00;67.74;95653.66;4911194;29;19933;-88
2023/07/25 02:23:31;;;;;;;;;;;20.50;74.80;;;20.01;67.06;95641.38;4911584;29;19926;-88
2023/07/25 02:26:02;;;;;;;;;;;20.50;74.40;;;19.98;67.20;95630.94;4926921;29;19933;-88
2023/07/25 02:28:35;;;;;;;;;;;20.50;74.40;;;19.97;67.09;95621.81;4911950;29;19942;-88
2023/07/25 02:31:05;;;;;;;;;;;20.50;74.40;;;19.96;67.32;95611.03;4926817;29;20408;-88
2023/07/25 02:33:33;;;;;;;;;;;20.50;74.40;;;19.96;67.23;95616.59;4942621;29;20319;-88
2023/07/25 02:36:04;;;;;;;;;;;20.50;74.50;;;20.02;67.57;95640.22;4911091;29;21826;-88
2023/07/25 02:38:32;;;;;;;;;;;20.50;74.70;;;20.05;67.34;95636.75;4942440;29;20278;-88
2023/07/25 02:41:00;;;;;;;;;;;20.60;74.40;;;20.06;67.27;95632.81;4911139;29;19933;-88
2023/07/25 02:43:28;;;;;;;;;;;20.60;74.20;;;20.05;67.10;95637.56;4926707;29;19927;-88
2023/07/25 02:45:57;;;;;;;;;;;20.60;74.00;;;20.04;66.94;95646.25;4942551;29;19930;-88
2023/07/25 02:48:29;;;;;;;;;;;20.60;74.00;;;20.03;66.97;95644.63;4926635;29;19934;-88
2023/07/25 02:50:57;;;;;;;;;;;20.50;73.90;;;19.99;66.92;95649.25;4927046;29;19926;-88
2023/07/25 02:53:25;;;;;;;;;;;20.50;73.90;;;19.91;66.97;95646.22;4941963;29;19934;-88
2023/07/25 02:55:54;;;;;;;;;;;20.50;74.10;;;19.90;67.11;95658.50;4926605;29;19938;-88
2023/07/25 02:58:23;;;;;;;;;;;20.40;74.10;;;19.88;67.15;95660.81;4910660;29;20427;-87
2023/07/25 03:00:51;;;;;;;;;;;20.40;74.20;;;19.84;67.40;95648.72;4942612;29;19927;-88
2023/07/25 03:03:19;;;;;;;;;;;20.40;74.30;;;19.88;67.36;95660.81;4926549;29;19926;-87
2023/07/25 03:05:49;;;;;;;;;;;20.40;74.60;;;19.92;67.68;95656.19;4927482;29;20486;-87
2023/07/25 03:08:17;;;;;;;;;;;20.40;74.60;;;19.96;67.37;95661.03;4945526;29;20302;-87
2023/07/25 03:10:47;;;;;;;;;;;20.50;74.70;;;19.98;67.45;95659.56;4929844;29;19926;-88
2023/07/25 03:13:16;;;;;;;;;;;20.50;74.60;;;19.99;67.63;95661.19;4930129;29;19926;-87
2023/07/25 03:15:44;;;;;;;;;;;20.50;74.60;;;20.01;67.32;95660.81;4945470;29;19930;-87
2023/07/25 03:18:12;;;;;;;;;;;20.50;74.40;;;20.02;67.17;95665.22;4929780;29;19949;-87
2023/07/25 03:20:41;;;;;;;;;;;20.50;74.40;;;20.02;67.43;95656.91;4929306;29;19999;-88
2023/07/25 03:23:10;;;;;;;;;;;20.60;74.40;;;20.04;67.17;95668.47;4929655;29;20313;-88
2023/07/25 03:25:38;;;;;;;;;;;20.60;74.40;;;20.01;67.12;95675.50;4929728;29;20389;-87
2023/07/25 03:28:09;;;;;;;;;;;20.50;74.30;;;19.99;67.37;95679.81;4929474;29;19927;-88
2023/07/25 03:30:37;;;;;;;;;;;20.50;74.40;;;19.92;67.57;95672.88;4929259;29;19926;-88
2023/07/25 03:33:05;;;;;;;;;;;20.50;74.60;;;19.90;67.73;95669.63;4945059;29;20408;-87
2023/07/25 03:35:33;;;;;;;;;;;20.50;74.80;;;19.90;67.69;95677.94;4945258;29;19927;-87
2023/07/25 03:38:02;;;;;;;;;;;20.40;74.70;;;19.91;67.79;95678.75;4929434;29;19935;-87
2023/07/25 03:40:31;;;;;;;;;;;20.50;75.00;;;19.95;67.71;95676.91;4929472;29;19934;-87
2023/07/25 03:42:59;;;;;;;;;;;20.50;75.00;;;19.97;68.13;95673.78;4929210;29;19934;-87
2023/07/25 03:45:27;;;;;;;;;;;20.50;75.10;;;19.98;67.99;95673.44;4929572;29;19933;-87
2023/07/25 03:47:56;;;;;;;;;;;20.50;75.00;;;19.98;67.86;95672.63;4929516;29;19927;-87
2023/07/25 03:50:24;;;;;;;;;;;20.50;75.00;;;19.96;67.73;95672.16;4929585;29;19927;-87
2023/07/25 03:52:52;;;;;;;;;;;20.50;75.00;;;19.92;67.89;95667.31;4928904;29;19927;-87
2023/07/25 03:55:20;;;;;;;;;;;20.50;75.10;;;19.93;67.94;95666.16;4929128;29;19950;-87
2023/07/25 03:57:50;;;;;;;;;;;20.50;75.20;;;19.92;68.17;95658.97;4929006;29;19927;-88
2023/07/25 04:00:19;;;;;;;;;;;20.50;75.30;;;19.92;67.97;95661.75;4945200;29;19934;-88
2023/07/25 04:02:49;;;;;;;;;;;20.40;75.20;;;19.93;68.22;95652.25;4944304;29;19927;-88
2023/07/25 04:05:17;;;;;;;;;;;20.50;75.50;;;19.98;68.29;95634.56;4944495;29;20412;-88
2023/07/25 04:07:46;;;;;;;;;;;20.50;75.60;;;20.00;68.40;95640.59;4928985;29;19931;-88
2023/07/25 04:10:14;;;;;;;;;;;20.50;75.50;;;20.05;68.21;95642.31;4929073;29;19927;-88
2023/07/25 04:12:42;;;;;;;;;;;20.60;75.60;;;20.09;68.35;95637.66;4944357;29;19926;-88
2023/07/25 04:15:15;;;;;;;;;;;20.60;75.50;;;20.13;68.58;95635.81;4928708;29;19943;-88
2023/07/25 04:17:43;;;;;;;;;;;20.60;75.80;;;20.14;68.58;95640.22;4943212;29;19927;-88
2023/07/25 04:20:12;;;;;;;;;;;20.60;75.80;;;20.16;68.44;95643.47;4944661;29;19927;-88
2023/07/25 04:22:40;;;;;;;;;;;20.70;75.80;;;20.23;68.69;95654.03;4944623;29;19934;-88
2023/07/25 04:25:08;;;;;;;;;;;20.80;75.80;;;20.24;68.23;95628.66;4944331;29;19926;-88
2023/07/25 04:27:37;;;;;;;;;;;20.80;75.40;;;20.28;68.02;95627.97;4944570;29;20505;-88
2023/07/25 04:30:06;;;;;;;;;;;20.80;75.20;;;20.29;68.28;95618.47;4944465;29;19933;-88
2023/07/25 04:32:36;;;;;;;;;;;20.80;75.30;;;20.33;68.20;95613.84;4944591;29;20298;-88
2023/07/25 04:35:04;;;;;;;;;;;20.90;75.50;;;20.39;68.34;95612.44;4944057;29;19933;-88
2023/07/25 04:37:32;;;;;;;;;;;20.90;75.60;;;20.43;68.73;95623.66;4944215;29;20282;-88
2023/07/25 04:40:01;;;;;;;;;;;20.90;75.80;;;20.44;68.89;95619.72;4928588;29;19926;-88
2023/07/25 04:42:29;;;;;;;;;;;21.00;76.00;;;20.42;68.89;95620.06;4944200;29;19926;-88
2023/07/25 04:44:57;;;;;;;;;;;21.00;76.00;;;20.45;68.81;95624.94;4928352;29;20381;-88
2023/07/25 04:47:25;;;;;;;;;;;21.00;76.00;;;20.48;69.17;95629.78;4944179;29;19926;-88
2023/07/25 04:49:54;;;;;;;;;;;21.00;76.30;;;20.53;69.17;95629.56;4944468;29;20419;-88
2023/07/25 04:52:22;;;;;;;;;;;21.00;76.50;;;20.60;69.19;95633.72;4928177;29;19938;-88
2023/07/25 04:54:52;;;;;;;;;;;21.10;76.50;;;20.66;69.52;95640.66;4928317;29;19927;-88
2023/07/25 04:57:21;;;;;;;;;;;21.10;76.70;;;20.71;69.27;95634.88;4927962;29;20316;-88
2023/07/25 04:59:51;;;;;;;;;;;21.20;76.40;;;20.79;69.43;95647.84;4944203;29;19927;-88
2023/07/25 05:02:20;;;;;;;;;;;21.30;76.70;;;20.83;69.19;95653.53;4927947;29;20333;-88
2023/07/25 05:04:49;;;;;;;;;;;21.30;76.40;;;20.87;69.51;95637.75;4928283;29;20322;-88
2023/07/25 05:07:19;;;;;;;;;;;21.40;76.50;;;20.90;69.33;95641.81;4927947;29;19927;-88
2023/07/25 05:09:47;;;;;;;;;;;21.40;76.60;;;20.95;69.18;95652.69;4927966;29;19927;-88
2023/07/25 05:12:16;;;;;;;;;;;21.50;76.30;;;20.95;68.72;95659.06;4912418;29;19933;-88
2023/07/25 05:14:44;;;;;;;;;;;21.50;75.90;;;21.02;68.38;95669.59;4928165;29;19927;-88
2023/07/25 05:17:12;;;;;;;;;;;21.50;75.60;;;21.08;67.89;95679.34;4912097;29;20309;-88
2023/07/25 05:19:41;;;;;;;;;;;21.60;74.90;;;21.13;67.87;95684.63;4927724;29;19933;-88
2023/07/25 05:22:09;;;;;;;;;;;21.70;74.90;;;21.19;67.74;95695.53;4927639;29;19926;-88
2023/07/25 05:24:39;;;;;;;;;;;21.70;74.60;;;21.19;67.52;95678.84;4912257;29;20381;-88
2023/07/25 05:27:07;;;;;;;;;;;21.70;74.50;;;21.22;67.98;95672.56;4943528;29;20419;-88
2023/07/25 05:29:35;;;;;;;;;;;21.80;74.80;;;21.24;67.89;95678.56;4927577;29;20333;-88
2023/07/25 05:32:04;;;;;;;;;;;21.80;74.50;;;21.25;67.78;95686.59;4942862;29;19926;-88
2023/07/25 05:34:35;;;;;;;;;;;21.80;74.60;;;21.29;67.66;95693.06;4942923;29;19927;-88
2023/07/25 05:37:03;;;;;;;;;;;21.80;74.40;;;21.31;67.60;95696.28;4927989;29;19927;-88
2023/07/25 05:39:33;;;;;;;;;;;21.90;74.40;;;21.33;67.36;95690.41;4927413;29;19926;-88
2023/07/25 05:42:03;;;;;;;;;;;21.90;74.10;;;21.39;67.22;95702.09;4943307;28;19953;-88
2023/07/25 05:44:31;;;;;;;;;;;22.00;73.90;;;21.43;67.21;95702.97;4942912;29;19927;-88
2023/07/25 05:47:02;;;;;;;;;;;22.00;73.90;;;21.42;66.78;95706.97;4927252;29;20432;-88
2023/07/25 05:49:30;;;;;;;;;;;22.00;73.50;;;21.45;68.09;95697.88;4912144;29;19927;-88
2023/07/25 05:51:58;;;;;;;;;;;22.00;74.70;;;21.48;67.67;95707.50;4941844;28;20321;-88
2023/07/25 05:54:27;;;;;;;;;;;22.00;74.30;;;21.49;67.88;95700.78;4926901;29;19930;-88
2023/07/25 05:56:55;;;;;;;;;;;22.00;74.70;;;21.51;67.99;95704.81;4926738;29;19927;-88
2023/07/25 05:59:24;;;;;;;;;;;22.00;75.00;;;21.55;68.55;95696.56;4926506;29;19926;-88
2023/07/25 06:01:53;;;;;;;;;;;22.10;75.50;;;21.60;67.99;95690.78;4926998;29;19933;-88
2023/07/25 06:04:21;;;;;;;;;;;22.10;75.00;;;21.67;67.95;95671.47;4942776;29;19926;-88
2023/07/25 06:06:49;;;;;;;;;;;22.20;74.90;;;21.76;67.70;95677.69;4942969;29;19926;-88
2023/07/25 06:09:17;;;;;;;;;;;22.30;74.40;;;21.84;67.17;95673.13;4911595;29;20428;-88
2023/07/25 06:11:45;;;;;;;;;;;22.40;74.10;;;21.96;67.26;95700.13;4926846;29;19949;-88
2023/07/25 06:14:14;;;;;;;;;;;22.50;73.90;;;22.02;66.79;95693.09;4943998;28;19927;-88
2023/07/25 06:16:43;;;;;;;;;;;22.50;73.50;;;22.13;66.43;95696.16;4927133;29;19933;-88
2023/07/25 06:19:11;;;;;;;;;;;22.60;73.10;;;22.21;66.01;95688.81;4927226;29;19926;-88
2023/07/25 06:21:39;;;;;;;;;;;22.70;72.80;;;22.26;65.46;95691.34;4942681;29;19926;-88
2023/07/25 06:24:07;;;;;;;;;;;22.80;72.40;;;22.35;65.31;95685.56;4926920;29;19931;-88
2023/07/25 06:26:36;;;;;;;;;;;22.80;72.00;;;22.37;65.20;95655.34;4926570;29;19930;-88
2023/07/25 06:29:04;;;;;;;;;;;22.90;71.70;;;22.44;64.70;95661.13;4926864;29;19926;-88
2023/07/25 06:31:32;;;;;;;;;;;22.90;71.40;;;22.47;64.86;95677.13;4942544;29;19926;-88
2023/07/25 06:34:01;;;;;;;;;;;23.00;71.20;;;22.53;65.25;95681.28;4926945;29;19927;-88
2023/07/25 06:36:29;;;;;;;;;;;23.00;71.80;;;22.59;66.11;95662.28;4957742;28;19926;-88
2023/07/25 06:38:57;;;;;;;;;;;23.10;72.80;;;22.64;65.23;95664.81;4941930;29;19931;-88
2023/07/25 06:41:25;;;;;;;;;;;23.20;71.80;;;22.71;64.97;95678.09;4925687;29;19934;-88
2023/07/25 06:43:59;;;;;;;;;;;23.20;71.50;;;22.77;64.95;95684.22;4941987;29;19933;-88
2023/07/25 06:46:27;;;;;;;;;;;23.30;71.30;;;22.79;64.56;95688.25;4895525;29;19953;-88
2023/07/25 06:48:55;;;;;;;;;;;23.30;70.90;;;22.82;63.88;95675.53;4926665;29;19926;-88
2023/07/25 06:51:25;;;;;;;;;;;23.40;70.40;;;22.86;62.98;95668.06;4926555;29;19934;-87
2023/07/25 06:53:53;;;;;;;;;;;23.40;70.40;;;22.84;63.60;95653.66;4926681;29;19927;-88
2023/07/25 06:56:21;;;;;;;;;;;23.40;69.90;;;22.88;63.80;95650.94;4926079;29;20313;-87
2023/07/25 06:58:49;;;;;;;;;;;23.40;69.90;;;22.93;63.47;95643.09;4926619;29;20389;-88
2023/07/25 07:01:18;;;;;;;;;;;23.50;69.70;;;22.95;63.08;95629.59;4911168;29;19942;-88
2023/07/25 07:03:46;;;;;;;;;;;23.50;69.90;;;22.97;63.07;95607.72;4926702;29;19934;-88
2023/07/25 07:06:14;;;;;;;;;;;23.40;69.30;;;22.99;62.92;95607.34;4926305;29;19934;-88
2023/07/25 07:08:44;;;;;;;;;;;23.50;69.00;;;22.93;62.98;95617.97;4926657;29;19933;-88
2023/07/25 07:11:12;;;;;;;;;;;23.50;69.20;;;22.91;62.80;95611.97;4934384;29;19949;-88
2023/07/25 07:13:40;;;;;;;;;;;23.50;69.10;;;22.92;63.01;95596.03;4926316;29;19933;-88
2023/07/25 07:16:09;;;;;;;;;;;23.50;69.20;;;22.96;63.39;95580.19;4941336;29;19931;-88
2023/07/25 07:18:37;;;;;;;;;;;23.50;69.60;;;22.98;63.18;95567.47;4910532;29;19934;-88
2023/07/25 07:21:05;;;;;;;;;;;23.50;69.60;;;23.06;63.13;95567.59;4941676;29;19930;-88
2023/07/25 07:23:33;;;;;;;;;;;23.50;69.30;;;23.09;62.60;95553.72;4926368;29;19927;-88
2023/07/25 07:26:03;;;;;;;;;;;23.60;69.00;;;23.11;62.69;95547.75;4926135;29;19927;-88
2023/07/25 07:28:31;;;;;;;;;;;23.60;68.90;;;23.17;62.81;95548.28;4941921;29;19934;-88
2023/07/25 07:30:59;;;;;;;;;;;23.60;68.90;;;23.17;61.95;95548.28;4925948;29;19933;-88
2023/07/25 07:33:28;;;;;;;;;;;23.70;68.60;;;23.19;62.01;95543.13;4926143;29;19927;-88
2023/07/25 07:35:56;;;;;;;;;;;23.70;68.40;;;23.21;62.09;95536.03;4941953;29;19926;-88
2023/07/25 07:38:24;;;;;;;;;;;23.70;68.20;;;23.23;61.91;95522.50;4941768;29;19934;-87
2023/07/25 07:40:52;;;;;;;;;;;23.70;68.40;;;23.25;62.21;95520.16;4923139;29;20003;-88
2023/07/25 07:43:22;;;;;;;;;;;23.80;68.20;;;23.29;61.80;95504.28;4907111;29;19934;-88
2023/07/25 07:45:50;;;;;;;;;;;23.80;68.10;;;23.32;62.00;95501.91;4906935;29;19938;-88
2023/07/25 07:48:18;;;;;;;;;;;23.80;68.00;;;23.33;61.95;95490.38;4922660;29;19937;-88
2023/07/25 07:50:46;;;;;;;;;;;23.80;67.80;;;23.36;61.56;95495.22;4924734;29;19952;-88
2023/07/25 07:53:16;;;;;;;;;;;23.90;68.00;;;23.36;61.56;95486.84;4928451;29;19934;-88
2023/07/25 07:55:44;;;;;;;;;;;23.90;68.00;;;23.38;61.65;95483.66;4929272;29;19927;-88
2023/07/25 07:58:12;;;;;;;;;;;23.90;67.90;;;23.40;61.66;95472.94;4929301;29;19926;-88
2023/07/25 08:00:41;;;;;;;;;;;23.90;67.90;;;23.42;61.66;95473.38;4929025;29;19933;-88
2023/07/25 08:03:10;;;;;;;;;;;23.90;67.70;;;23.40;61.49;95464.56;4944324;29;19933;-87
2023/07/25 08:05:38;;;;;;;;;;;23.90;67.70;;;23.41;61.35;95466.19;4913337;29;19934;-88
2023/07/25 08:08:08;;;;;;;;;;;23.90;67.60;;;23.41;61.55;95460.59;4944875;29;19927;-87
2023/07/25 08:10:36;;;;;;;;;;;23.90;67.30;;;23.44;61.23;95454.22;4928997;29;19930;-89
2023/07/25 08:13:04;;;;;;;;;;;23.90;67.20;;;23.44;61.35;95454.22;4928738;28;19926;-87
2023/07/25 08:15:32;;;;;;;;;;;24.00;67.40;;;23.47;61.19;95452.69;4944727;29;19927;-87
2023/07/25 08:18:02;;;;;;;;;;;24.00;67.00;;;23.49;60.73;95455.94;4929007;29;19927;-88
2023/07/25 08:20:30;;;;;;;;;;;24.00;66.60;;;23.49;60.50;95445.56;4943735;29;19933;-87
2023/07/25 08:22:58;;;;;;;;;;;24.00;66.60;;;23.51;60.74;95446.00;4928807;28;20305;-88
2023/07/25 08:25:26;;;;;;;;;;;24.00;66.80;;;23.53;60.63;95449.22;4928648;29;19934;-88
2023/07/25 08:27:55;;;;;;;;;;;24.00;66.70;;;23.53;60.98;95446.44;4928786;29;19933;-87
2023/07/25 08:30:23;;;;;;;;;;;24.00;66.80;;;23.53;61.19;95438.03;4928580;29;19949;-88
2023/07/25 08:32:51;;;;;;;;;;;24.10;66.90;;;23.54;60.76;95439.66;4913271;29;20392;-87
2023/07/25 08:35:21;;;;;;;;;;;24.10;66.90;;;23.52;60.87;95444.81;4928785;29;20270;-87
2023/07/25 08:37:49;;;;;;;;;;;24.00;66.80;;;23.53;60.92;95440.00;4928189;29;19930;-87
2023/07/25 08:40:18;;;;;;;;;;;24.10;66.90;;;23.53;60.89;95428.84;4928341;29;19927;-88
2023/07/25 08:42:47;;;;;;;;;;;24.10;66.90;;;23.53;61.13;95432.47;4928325;29;20004;-88
2023/07/25 08:45:15;;;;;;;;;;;24.10;67.40;;;23.59;61.55;95433.75;4944025;29;19934;-88
2023/07/25 08:47:43;;;;;;;;;;;24.10;67.50;;;23.59;61.36;95430.94;4897264;29;19933;-87
2023/07/25 08:50:15;;;;;;;;;;;24.10;67.20;;;23.63;61.17;95435.78;4928387;29;19926;-88
2023/07/25 08:52:49;;;;;;;;;;;24.20;67.10;;;23.64;61.29;95432.59;4928197;29;19934;-87
2023/07/25 08:55:18;;;;;;;;;;;24.20;67.00;;;23.63;61.23;95433.00;4944291;29;19927;-88
2023/07/25 08:57:46;;;;;;;;;;;24.20;66.90;;;23.65;61.29;95436.22;4928041;29;20275;-87
2023/07/25 09:00:15;;;;;;;;;;;24.20;67.10;;;23.67;60.58;95428.28;4928424;29;19933;-88
2023/07/25 09:02:43;;;;;;;;;;;24.20;66.10;;;23.67;60.50;95423.50;4943477;29;20393;-87
2023/07/25 09:05:11;;;;;;;;;;;24.20;66.50;;;23.70;61.00;95419.13;4927769;29;19926;-88
2023/07/25 09:07:42;;;;;;;;;;;24.30;66.80;;;23.76;59.80;95417.63;4928258;29;19933;-88
2023/07/25 09:10:13;;;;;;;;;;;24.30;65.50;;;23.80;59.77;95426.06;4912833;29;19926;-88
2023/07/25 09:12:41;;;;;;;;;;;24.30;65.60;;;23.83;60.13;95422.53;4928509;29;20389;-87
2023/07/25 09:15:09;;;;;;;;;;;24.40;65.60;;;23.85;59.62;95418.16;4927825;29;19930;-87
2023/07/25 09:17:37;;;;;;;;;;;24.40;65.30;;;23.87;59.68;95417.81;4928164;29;19954;-87
2023/07/25 09:20:07;;;;;;;;;;;24.40;65.20;;;23.87;59.62;95424.19;4927773;29;19946;-87
2023/07/25 09:22:35;;;;;;;;;;;24.50;65.40;;;23.86;59.19;95411.41;4912680;29;19933;-87
2023/07/25 09:25:08;;;;;;;;;;;24.40;64.70;;;23.89;58.73;95407.03;4943122;29;19927;-87
2023/07/25 09:27:40;;;;;;;;;;;24.50;64.20;;;23.93;58.04;95409.91;4927355;29;19930;-87
2023/07/25 09:30:12;;;;;;;;;;;24.50;63.40;;;23.97;58.24;95411.59;4942978;29;20297;-87
2023/07/25 09:32:45;;;;;;;;;;;24.50;63.50;;;24.00;57.88;95396.03;4958640;28;20389;-88
2023/07/25 09:35:13;;;;;;;;;;;24.60;63.10;;;24.01;58.37;95386.47;4927655;29;19935;-87
2023/07/25 09:37:41;;;;;;;;;;;24.60;63.60;;;24.02;58.04;95394.47;4927747;29;19927;-88
2023/07/25 09:40:10;;;;;;;;;;;24.60;63.30;;;24.01;58.54;95409.63;4927772;29;19946;-88
2023/07/25 09:42:42;;;;;;;;;;;24.60;63.90;;;23.99;59.11;95405.59;4942087;29;19933;-87
2023/07/25 09:45:11;;;;;;;;;;;24.60;64.40;;;23.99;59.26;95400.03;4927606;29;19926;-88
2023/07/25 09:47:39;;;;;;;;;;;24.60;64.50;;;24.02;58.93;95399.28;4927640;29;20406;-88
2023/07/25 09:50:07;;;;;;;;;;;24.60;64.20;;;24.03;58.95;95396.09;4943478;29;19926;-88
2023/07/25 09:52:39;;;;;;;;;;;24.60;64.30;;;24.04;59.00;95392.09;4927153;29;19930;-88
2023/07/25 09:55:08;;;;;;;;;;;24.60;64.40;;;24.02;59.07;95388.09;4927883;29;19927;-88
2023/07/25 09:57:36;;;;;;;;;;;24.60;64.60;;;24.01;59.36;95394.84;4927236;29;20305;-88
2023/07/25 10:00:07;;;;;;;;;;;24.60;64.80;;;23.99;59.64;95389.66;4922821;28;19927;-88
2023/07/25 10:02:36;;;;;;;;;;;24.60;65.20;;;24.02;60.48;95402.06;4930823;29;20416;-88
2023/07/25 10:05:05;;;;;;;;;;;24.60;65.60;;;23.99;60.01;95405.59;4927027;29;19934;-88
2023/07/25 10:07:33;;;;;;;;;;;24.60;65.70;;;23.99;60.06;95400.03;4942958;29;19926;-88
2023/07/25 10:10:02;;;;;;;;;;;24.60;65.80;;;23.94;60.63;95392.75;4942986;29;19930;-88
2023/07/25 10:12:31;;;;;;;;;;;24.60;66.00;;;23.94;60.40;95405.94;4927037;29;19977;-88
2023/07/25 10:14:59;;;;;;;;;;;24.60;66.10;;;23.91;60.93;95404.66;4926582;29;19926;-88
2023/07/25 10:17:28;;;;;;;;;;;24.50;66.40;;;23.89;61.03;95393.88;4942041;29;19927;-88
2023/07/25 10:19:57;;;;;;;;;;;24.50;66.80;;;23.88;61.15;95394.25;4927256;29;19927;-88
2023/07/25 10:22:34;;;;;;;;;;;24.50;66.90;;;23.84;61.17;95391.41;4926780;29;19933;-88
2023/07/25 10:25:02;;;;;;;;;;;24.50;67.10;;;23.84;61.36;95383.00;4911290;29;19926;-88
2023/07/25 10:27:30;;;;;;;;;;;24.50;67.20;;;23.82;61.40;95396.56;4926689;29;19931;-88
2023/07/25 10:30:00;;;;;;;;;;;24.50;67.10;;;23.83;61.39;95384.19;4926729;29;19926;-88
2023/07/25 10:38:30;;;;;;;;;;;24.50;67.60;;;23.86;61.74;95391.81;4366027;32;20003;-86
2023/07/25 10:40:59;;;;;;;;;;;24.50;67.70;;;23.84;61.65;95388.59;5079066;28;35769;-86
2023/07/25 10:43:28;;;;;;;;;;;24.50;67.60;;;23.84;61.97;95382.22;5097383;28;19923;-87
2023/07/25 10:45:57;;;;;;;;;;;24.50;67.70;;;23.86;61.98;95377.06;5080255;28;19924;-87
2023/07/25 10:48:32;;;;;;;;;;;24.50;67.80;;;23.85;61.70;95373.44;5080454;28;19931;-86
2023/07/25 10:51:01;;;;;;;;;;;24.50;67.90;;;23.86;61.86;95375.06;5096709;28;19938;-86
2023/07/25 10:53:30;;;;;;;;;;;24.50;67.90;;;23.86;62.29;95365.88;5096720;28;19924;-86
2023/07/25 10:56:17;;;;;;;;;;;24.50;68.00;;;23.85;62.30;95364.25;5063335;28;19931;-86
2023/07/25 10:59:05;;;;;;;;;;;24.50;67.90;;;23.81;61.79;95367.03;5078965;28;19947;-87
2023/07/25 11:01:46;;;;;;;;;;;24.40;67.70;;;23.79;62.04;95352.63;5079762;28;19924;-87
2023/07/25 11:04:25;;;;;;;;;;;24.40;67.60;;;23.78;62.25;95358.56;5079982;28;19924;-86
2023/07/25 11:06:54;;;;;;;;;;;24.40;68.20;;;23.79;62.74;95363.78;5079094;28;19924;-87
2023/07/25 11:09:23;;;;;;;;;;;24.40;68.50;;;23.78;62.67;95351.00;5079784;28;19932;-87
2023/07/25 11:11:52;;;;;;;;;;;24.40;68.50;;;23.78;63.19;95342.63;5079383;28;19924;-87
2023/07/25 11:14:20;;;;;;;;;;;24.30;69.10;;;23.79;63.27;95330.25;5080078;28;20376;-87
2023/07/25 11:16:50;;;;;;;;;;;24.40;69.30;;;23.80;63.30;95325.47;5096326;28;19924;-87
2023/07/25 11:19:21;;;;;;;;;;;24.40;69.50;;;23.84;63.29;95329.91;5079663;28;20265;-88
2023/07/25 11:21:50;;;;;;;;;;;24.40;69.20;;;23.85;63.17;95320.34;5079457;28;20141;-88
2023/07/25 11:24:19;;;;;;;;;;;24.40;69.20;;;23.87;63.03;95326.34;5063211;28;19924;-88
2023/07/25 11:26:49;;;;;;;;;;;24.50;69.00;;;23.88;63.20;95319.59;5096447;28;19931;-88
2023/07/25 11:29:18;;;;;;;;;;;24.50;69.10;;;23.90;62.93;95316.41;5079406;28;19932;-88
2023/07/25 11:31:47;;;;;;;;;;;24.50;69.00;;;23.92;63.20;95316.03;5095957;28;19924;-88